Time;durP1;ratioP1;P1;durP2;ratioP2;P2;SDS_P1;SDS_P2;PMS_P1;PMS_P2;Temp;Humidity;BMP_temperature;BMP_pressure;BME280_temperature;BME280_humidity;BME280_pressure;Samples;Min_cycle;Max_cycle;Signal;HPM_P1;HPM_P2
2022/08/31 00:05:54;;;;;;;10.15;4.38;;;20.10;99.90;;;;;;6336179;22;20331;-87
2022/08/31 00:08:19;;;;;;;11.65;4.38;;;20.10;99.90;;;;;;6336155;22;20427;-89
2022/08/31 00:10:46;;;;;;;13.77;5.10;;;20.10;99.90;;;;;;6307977;22;20010;-88
2022/08/31 00:13:12;;;;;;;14.88;4.93;;;20.00;99.90;;;;;;6307042;22;20002;-89
2022/08/31 00:15:39;;;;;;;13.25;4.88;;;20.00;99.90;;;;;;6307522;22;20086;-87
2022/08/31 00:18:04;;;;;;;21.65;5.60;;;20.00;99.90;;;;;;6334658;22;20006;-88
2022/08/31 00:20:31;;;;;;;9.75;4.90;;;19.90;99.90;;;;;;6334560;22;20007;-87
2022/08/31 00:22:57;;;;;;;19.77;5.07;;;19.90;99.90;;;;;;6307469;22;20018;-87
2022/08/31 00:25:23;;;;;;;15.55;5.22;;;19.90;99.90;;;;;;6336318;22;20056;-88
2022/08/31 00:27:49;;;;;;;19.52;5.05;;;19.90;99.90;;;;;;6307622;22;20007;-88
2022/08/31 00:30:17;;;;;;;12.10;4.80;;;19.80;99.90;;;;;;6306962;22;20073;-88
2022/08/31 00:32:42;;;;;;;12.57;5.30;;;19.90;99.90;;;;;;6307077;22;20098;-88
2022/08/31 00:35:10;;;;;;;14.10;5.50;;;19.80;99.90;;;;;;6334665;22;20037;-88
2022/08/31 00:37:39;;;;;;;11.10;4.82;;;19.70;99.90;;;;;;6307803;22;20324;-90
2022/08/31 00:40:05;;;;;;;15.02;5.07;;;19.80;99.90;;;;;;6307245;22;20022;-88
2022/08/31 00:42:31;;;;;;;15.25;5.35;;;19.70;99.90;;;;;;6307712;22;20002;-89
2022/08/31 00:44:57;;;;;;;14.45;5.40;;;19.60;99.90;;;;;;6335128;22;19999;-89
2022/08/31 00:47:23;;;;;;;16.92;5.68;;;19.60;99.90;;;;;;6308587;22;20002;-92
2022/08/31 00:49:50;;;;;;;17.67;5.85;;;19.50;99.90;;;;;;6307860;22;20033;-89
2022/08/31 00:52:27;;;;;;;11.75;4.90;;;19.60;99.90;;;;;;6335675;22;20048;-89
2022/08/31 00:55:00;;;;;;;12.23;5.18;;;19.60;99.90;;;;;;6336642;22;20450;-89
2022/08/31 00:57:32;;;;;;;18.15;5.15;;;19.60;99.90;;;;;;6335744;22;19998;-89
2022/08/31 01:00:00;;;;;;;10.57;4.97;;;19.60;99.90;;;;;;6334648;22;20051;-89
2022/08/31 01:02:26;;;;;;;17.88;4.97;;;19.60;99.90;;;;;;6335971;22;19999;-88
2022/08/31 01:04:52;;;;;;;18.10;5.28;;;20.20;99.90;;;;;;6306905;22;20029;-87
2022/08/31 01:07:18;;;;;;;14.60;5.05;;;19.50;99.90;;;;;;6306727;22;20514;-90
2022/08/31 01:09:45;;;;;;;14.77;5.40;;;19.50;99.90;;;;;;6333892;22;20009;-89
2022/08/31 01:12:11;;;;;;;19.23;5.10;;;;;;;;;;6306895;22;20089;-87
2022/08/31 01:14:38;;;;;;;14.60;5.22;;;19.60;99.90;;;;;;6334186;22;20006;-89
2022/08/31 01:17:05;;;;;;;14.85;5.25;;;19.90;99.90;;;;;;6335151;22;20068;-88
2022/08/31 01:19:34;;;;;;;12.90;5.23;;;20.00;99.90;;;;;;6306590;22;20093;-88
2022/08/31 01:22:27;;;;;;;18.05;5.68;;;19.50;99.90;;;;;;6307217;22;20006;-87
2022/08/31 01:24:54;;;;;;;15.95;5.07;;;19.60;99.90;;;;;;6307294;22;20464;-89
2022/08/31 01:27:26;;;;;;;19.10;5.30;;;19.40;99.90;;;;;;6306614;22;20068;-88
2022/08/31 01:29:52;;;;;;;10.27;4.95;;;19.50;99.90;;;;;;6307206;22;20493;-89
2022/08/31 01:32:18;;;;;;;16.98;5.05;;;19.40;99.90;;;;;;6334665;22;20070;-89
2022/08/31 01:34:44;;;;;;;15.82;5.22;;;19.40;99.90;;;;;;6335115;22;20070;-88
2022/08/31 01:37:11;;;;;;;14.25;5.07;;;19.40;99.90;;;;;;6335292;22;20022;-88
2022/08/31 01:39:37;;;;;;;12.85;5.45;;;19.40;99.90;;;;;;6333428;22;20010;-88
2022/08/31 01:42:03;;;;;;;12.70;5.30;;;19.30;99.90;;;;;;6334854;22;20021;-87
2022/08/31 01:44:29;;;;;;;17.52;5.82;;;19.20;99.90;;;;;;6335692;22;20060;-88
2022/08/31 01:46:55;;;;;;;13.30;5.95;;;19.20;99.90;;;;;;6334557;22;19998;-91
2022/08/31 01:49:22;;;;;;;14.40;5.18;;;19.20;99.90;;;;;;6306634;22;20017;-88
2022/08/31 01:51:49;;;;;;;16.30;5.35;;;19.20;99.90;;;;;;6333997;22;20025;-88
2022/08/31 01:54:19;;;;;;;16.27;5.97;;;19.10;99.90;;;;;;6335077;22;19999;-89
2022/08/31 01:56:46;;;;;;;14.00;5.20;;;19.00;99.90;;;;;;6309222;22;19999;-89
2022/08/31 01:59:14;;;;;;;16.30;5.80;;;19.10;99.90;;;;;;6336012;22;20335;-90
2022/08/31 02:01:43;;;;;;;14.23;5.93;;;19.80;99.90;;;;;;6308863;22;20232;-88
2022/08/31 02:04:11;;;;;;;18.23;5.93;;;19.70;99.90;;;;;;6308043;22;20349;-90
2022/08/31 02:06:39;;;;;;;12.87;5.50;;;19.10;99.90;;;;;;6308200;22;20056;-90
2022/08/31 02:09:06;;;;;;;19.02;5.40;;;19.00;99.90;;;;;;6307631;22;20264;-91
2022/08/31 02:11:32;;;;;;;16.23;5.82;;;19.00;99.90;;;;;;6336955;22;20022;-88
2022/08/31 02:13:58;;;;;;;12.23;5.75;;;19.30;99.90;;;;;;6310183;22;20003;-85
2022/08/31 02:16:23;;;;;;;12.70;6.00;;;19.10;99.90;;;;;;6310808;22;19999;-87
2022/08/31 02:18:49;;;;;;;16.65;6.07;;;19.00;99.90;;;;;;6346831;22;20003;-86
2022/08/31 02:21:15;;;;;;;15.18;5.88;;;18.20;99.90;;;;;;6351119;22;19999;-87
2022/08/31 02:23:41;;;;;;;10.85;5.63;;;18.90;99.90;;;;;;6326515;22;19989;-87
2022/08/31 02:26:07;;;;;;;18.45;6.07;;;19.10;99.90;;;;;;6323065;22;20003;-87
2022/08/31 02:28:33;;;;;;;14.63;5.88;;;18.90;99.90;;;;;;6311873;22;20003;-88
2022/08/31 02:30:59;;;;;;;15.43;5.53;;;19.00;99.90;;;;;;6308247;22;20002;-87
2022/08/31 02:33:27;;;;;;;14.80;5.53;;;18.90;99.90;;;;;;6335926;22;20009;-89
2022/08/31 02:35:53;;;;;;;17.67;6.40;;;18.90;99.90;;;;;;6335873;22;20296;-89
2022/08/31 02:38:19;;;;;;;18.48;6.43;;;19.00;99.90;;;;;;6308548;22;20011;-92
2022/08/31 02:40:47;;;;;;;17.63;6.00;;;18.70;99.90;;;;;;6310077;22;20439;-91
2022/08/31 02:43:14;;;;;;;17.17;6.47;;;19.00;99.90;;;;;;6337821;22;19999;-89
2022/08/31 02:45:40;;;;;;;22.83;6.43;;;19.10;99.90;;;;;;6336981;22;20003;-90
2022/08/31 02:48:08;;;;;;;13.32;5.72;;;18.60;99.90;;;;;;6335861;22;20026;-88
2022/08/31 02:50:41;;;;;;;27.07;6.47;;;18.70;99.90;;;;;;6308873;22;20010;-89
2022/08/31 02:53:09;;;;;;;14.57;5.80;;;19.00;99.90;;;;;;6336316;22;20217;-91
2022/08/31 02:55:35;;;;;;;14.48;6.35;;;18.60;99.90;;;;;;6308297;22;20081;-88
2022/08/31 02:58:02;;;;;;;17.15;6.57;;;19.00;99.90;;;;;;6337162;22;19999;-91
2022/08/31 03:00:28;;;;;;;12.25;5.50;;;18.60;99.90;;;;;;6336282;22;20025;-88
2022/08/31 03:02:54;;;;;;;15.38;6.10;;;19.50;99.90;;;;;;6335694;22;20295;-88
2022/08/31 03:05:20;;;;;;;12.60;5.95;;;18.80;99.90;;;;;;6309463;22;20394;-88
2022/08/31 03:07:51;;;;;;;14.88;6.00;;;18.70;99.90;;;;;;6310422;22;19999;-90
2022/08/31 03:10:19;;;;;;;14.95;5.75;;;19.30;99.90;;;;;;6308984;22;20010;-91
2022/08/31 03:12:46;;;;;;;15.77;5.72;;;18.60;99.90;;;;;;6337586;22;20010;-88
2022/08/31 03:15:16;;;;;;;15.40;6.28;;;18.60;99.90;;;;;;6309583;22;19999;-92
2022/08/31 03:20:38;;;;;;;14.55;5.90;;;18.60;99.90;;;;;;6318817;22;20019;-88
2022/08/31 03:23:04;;;;;;;16.63;5.95;;;18.60;99.90;;;;;;6310431;22;20030;-90
2022/08/31 03:25:30;;;;;;;15.68;5.80;;;18.60;99.90;;;;;;6338700;22;19999;-91
2022/08/31 03:27:56;;;;;;;17.20;5.65;;;18.40;99.90;;;;;;6338606;22;20010;-90
2022/08/31 03:30:23;;;;;;;13.25;5.70;;;18.40;99.90;;;;;;6339073;22;20335;-91
2022/08/31 03:33:03;;;;;;;;;;;;;;;;;;;;;
2022/08/31 03:35:48;;;;;;;17.85;6.53;;;18.30;99.90;;;;;;6338221;22;20082;-91
2022/08/31 03:38:14;;;;;;;17.02;5.60;;;18.30;99.90;;;;;;6310994;22;20006;-92
2022/08/31 03:40:41;;;;;;;14.07;6.18;;;18.30;99.90;;;;;;6309445;22;20030;-89
2022/08/31 03:43:09;;;;;;;17.67;5.70;;;18.40;99.90;;;;;;6308602;22;20343;-87
2022/08/31 03:45:43;;;;;;;20.30;6.20;;;18.30;99.90;;;;;;6311167;22;20007;-91
2022/08/31 03:48:09;;;;;;;16.35;5.93;;;18.30;99.90;;;;;;6308374;22;20013;-90
2022/08/31 03:50:36;;;;;;;16.73;5.47;;;18.30;99.90;;;;;;6309696;22;20007;-87
2022/08/31 03:53:06;;;;;;;13.77;5.95;;;18.30;99.90;;;;;;6309379;22;20006;-90
2022/08/31 03:55:34;;;;;;;13.73;5.72;;;18.20;99.90;;;;;;6337194;22;20335;-91
2022/08/31 03:58:01;;;;;;;17.00;6.45;;;18.20;99.90;;;;;;6309150;22;20006;-90
2022/08/31 04:00:27;;;;;;;15.43;6.00;;;18.30;99.90;;;;;;6336428;22;20305;-89
2022/08/31 04:02:58;;;;;;;14.45;5.90;;;18.10;99.90;;;;;;6306901;22;20028;-90
2022/08/31 04:05:30;;;;;;;13.77;5.97;;;18.20;99.90;;;;;;6307042;22;20007;-90
2022/08/31 04:07:57;;;;;;;15.48;5.70;;;18.50;99.90;;;;;;6336875;22;19999;-90
2022/08/31 04:10:23;;;;;;;19.38;5.80;;;18.50;99.90;;;;;;6336527;22;20022;-91
2022/08/31 04:12:51;;;;;;;10.00;5.38;;;18.20;99.90;;;;;;6308503;22;20010;-89
2022/08/31 04:15:19;;;;;;;13.75;5.50;;;18.20;99.90;;;;;;6308431;22;20003;-88
2022/08/31 04:17:45;;;;;;;17.93;5.37;;;18.20;99.90;;;;;;6335411;22;19999;-89
2022/08/31 04:20:11;;;;;;;19.33;5.90;;;18.10;99.90;;;;;;6307605;22;20458;-90
2022/08/31 04:22:44;;;;;;;19.60;6.32;;;18.30;99.90;;;;;;6309615;22;20140;-91
2022/08/31 04:25:09;;;;;;;15.30;6.00;;;17.90;99.90;;;;;;6308675;22;20011;-89
2022/08/31 04:27:37;;;;;;;14.55;5.50;;;18.10;99.90;;;;;;6309398;22;20507;-89
2022/08/31 04:30:03;;;;;;;13.85;5.60;;;18.10;99.90;;;;;;6308329;22;20056;-89
2022/08/31 04:32:29;;;;;;;15.02;5.80;;;18.00;99.90;;;;;;6335647;22;20007;-89
2022/08/31 04:34:55;;;;;;;11.88;5.68;;;18.10;99.90;;;;;;6336287;22;20006;-89
2022/08/31 04:37:21;;;;;;;13.63;5.65;;;18.10;99.90;;;;;;6308290;22;20003;-89
2022/08/31 04:40:00;;;;;;;17.90;5.45;;;18.10;99.90;;;;;;6308744;22;20090;-90
2022/08/31 04:42:28;;;;;;;15.35;6.20;;;17.90;99.90;;;;;;6308481;22;20002;-89
2022/08/31 04:44:57;;;;;;;17.65;5.93;;;18.10;99.90;;;;;;6308207;22;20034;-90
2022/08/31 04:47:22;;;;;;;12.68;5.90;;;18.00;99.90;;;;;;6308871;22;20009;-90
2022/08/31 04:49:48;;;;;;;19.27;6.50;;;18.00;99.90;;;;;;6308370;22;20093;-91
2022/08/31 04:52:14;;;;;;;12.82;5.47;;;18.00;99.90;;;;;;6336461;22;19995;-89
2022/08/31 04:54:43;;;;;;;18.23;6.30;;;17.90;99.90;;;;;;6309161;22;20351;-90
2022/08/31 04:57:09;;;;;;;17.23;5.47;;;18.10;99.90;;;;;;6337325;22;19999;-89
2022/08/31 04:59:35;;;;;;;14.75;5.85;;;18.00;99.90;;;;;;6308981;22;20351;-89
2022/08/31 05:02:02;;;;;;;13.77;5.40;;;18.10;99.90;;;;;;6309007;22;20220;-90
2022/08/31 05:04:28;;;;;;;16.13;5.73;;;18.00;99.90;;;;;;6327786;22;20002;-89
2022/08/31 05:06:54;;;;;;;15.48;6.22;;;18.00;99.90;;;;;;6356374;22;20017;-89
2022/08/31 05:09:23;;;;;;;12.55;5.90;;;18.00;99.90;;;;;;6335438;22;20011;-88
2022/08/31 05:11:52;;;;;;;12.60;5.55;;;17.90;99.90;;;;;;6319076;22;20013;-88
2022/08/31 05:14:18;;;;;;;20.25;5.97;;;17.80;99.90;;;;;;6310820;22;20006;-91
2022/08/31 05:16:44;;;;;;;17.55;6.13;;;17.90;99.90;;;;;;6308267;22;20029;-89
2022/08/31 05:19:10;;;;;;;14.02;5.80;;;17.80;99.90;;;;;;6308580;22;20472;-88
2022/08/31 05:21:38;;;;;;;13.93;5.57;;;17.80;99.90;;;;;;6307949;22;20031;-89
2022/08/31 05:24:08;;;;;;;12.68;5.88;;;17.80;99.90;;;;;;6307345;22;20002;-88
2022/08/31 05:26:37;;;;;;;15.15;5.88;;;17.90;99.90;;;;;;6307465;22;19999;-89
2022/08/31 05:29:06;;;;;;;17.90;6.18;;;17.90;99.90;;;;;;6307167;22;20007;-89
2022/08/31 05:31:33;;;;;;;16.55;5.80;;;17.80;99.90;;;;;;6334903;22;20506;-91
2022/08/31 05:33:59;;;;;;;9.43;5.18;;;19.10;99.90;;;;;;6335405;22;20332;-90
2022/08/31 05:36:28;;;;;;;12.57;5.13;;;17.80;99.90;;;;;;6335148;22;20041;-89
2022/08/31 05:38:53;;;;;;;;;;;17.80;99.90;;;;;;6308272;22;20007;-88
2022/08/31 05:41:20;;;;;;;15.18;5.60;;;17.70;99.90;;;;;;6334208;22;19909;-88
2022/08/31 05:43:46;;;;;;;14.23;5.30;;;17.70;99.90;;;;;;6335299;22;20044;-88
2022/08/31 05:46:14;;;;;;;16.17;5.55;;;17.80;99.90;;;;;;6335949;22;19999;-89
2022/08/31 05:48:40;;;;;;;19.55;5.82;;;18.50;99.90;;;;;;6307903;22;20338;-87
2022/08/31 05:51:10;;;;;;;12.02;5.43;;;17.90;99.90;;;;;;6334541;22;20022;-87
2022/08/31 05:53:36;;;;;;;11.98;5.20;;;18.10;99.90;;;;;;6307704;22;20006;-87
2022/08/31 05:56:09;;;;;;;18.75;6.03;;;17.90;99.90;;;;;;6335034;22;20440;-89
2022/08/31 05:58:36;;;;;;;14.02;5.72;;;17.90;99.90;;;;;;6307064;22;20014;-89
2022/08/31 06:01:02;;;;;;;18.83;5.40;;;18.00;99.90;;;;;;6306673;22;20003;-91
2022/08/31 06:03:28;;;;;;;15.73;5.90;;;18.10;99.90;;;;;;6307407;22;20038;-90
2022/08/31 06:05:55;;;;;;;16.40;4.90;;;18.00;99.90;;;;;;6334822;22;20009;-87
2022/08/31 06:08:21;;;;;;;11.38;4.63;;;18.10;99.90;;;;;;6306848;22;20030;-89
2022/08/31 06:10:47;;;;;;;14.55;5.75;;;18.20;99.90;;;;;;6327248;22;20002;-89
2022/08/31 06:13:15;;;;;;;15.40;5.00;;;18.10;99.90;;;;;;6334868;22;20006;-91
2022/08/31 06:15:42;;;;;;;11.10;5.18;;;18.40;99.90;;;;;;6336835;22;19995;-90
2022/08/31 06:18:08;;;;;;;19.60;5.32;;;18.10;99.90;;;;;;6306870;22;20061;-91
2022/08/31 06:20:38;;;;;;;13.35;4.57;;;18.20;99.90;;;;;;6335115;22;20232;-89
2022/08/31 06:23:06;;;;;;;14.57;5.28;;;18.20;99.90;;;;;;6308051;22;20003;-90
2022/08/31 06:25:35;;;;;;;16.55;4.93;;;18.50;99.90;;;;;;6307855;22;20060;-89
2022/08/31 06:28:06;;;;;;;14.95;5.00;;;18.20;99.90;;;;;;6307682;22;20029;-88
2022/08/31 06:30:46;;;;;;;18.65;5.53;;;18.20;99.90;;;;;;6335090;22;19994;-89
2022/08/31 06:33:41;;;;;;;14.07;4.68;;;18.40;99.90;;;;;;6310371;22;20010;-90
2022/08/31 06:39:52;;;;;;;;;;;;;;;;;;;;;
2022/08/31 06:43:01;;;;;;;;;;;;;;;;;;;;;
2022/08/31 07:03:56;;;;;;;;;;;;;;;;;;;;;
2022/08/31 07:07:14;;;;;;;;;;;;;;;;;;;;;
2022/08/31 07:14:11;;;;;;;;;;;;;;;;;;;;;
2022/08/31 07:16:57;;;;;;;14.18;5.05;;;18.20;99.90;;;;;;5960416;23;20086;-89
2022/08/31 07:19:57;;;;;;;;;;;;;;;;;;;;;
2022/08/31 07:26:33;;;;;;;7.90;3.78;;;20.20;99.90;;;;;;5932410;24;20013;-92
2022/08/31 07:29:02;;;;;;;15.70;4.88;;;20.80;99.90;;;;;;5935553;23;20072;-88
2022/08/31 07:31:47;;;;;;;13.77;4.80;;;20.60;99.90;;;;;;6049842;23;20022;-88
2022/08/31 07:34:27;;;;;;;12.68;4.75;;;21.00;99.90;;;;;;6185051;23;20099;-88
2022/08/31 07:42:27;;;;;;;9.35;4.45;;;19.70;99.90;;;;;;6333516;22;20037;-89
2022/08/31 07:44:55;;;;;;;13.90;4.63;;;20.40;99.90;;;;;;6339349;22;20068;-90
2022/08/31 07:47:24;;;;;;;13.60;4.05;;;20.10;99.90;;;;;;6339316;22;20090;-90
2022/08/31 07:49:54;;;;;;;18.20;4.95;;;20.40;99.90;;;;;;6339852;22;20058;-89
2022/08/31 07:52:23;;;;;;;15.55;3.78;;;19.70;99.90;;;;;;6329461;22;20007;-88
2022/08/31 07:54:54;;;;;;;10.55;4.03;;;19.70;99.90;;;;;;6326976;22;20011;-91
2022/08/31 07:57:24;;;;;;;14.70;4.85;;;20.90;99.90;;;;;;6332188;22;20011;-89
2022/08/31 08:06:09;;;;;;;13.73;3.92;;;21.30;99.90;;;;;;6239493;23;20012;-90
2022/08/31 08:09:14;;;;;;;;;;;;;;;;;;;;;
2022/08/31 08:14:58;;;;;;;14.45;4.32;;;20.30;99.90;;;;;;6208528;23;20005;-88
2022/08/31 08:17:28;;;;;;;12.43;4.32;;;20.30;99.90;;;;;;6306954;22;20513;-90
2022/08/31 08:20:24;;;;;;;;;;;;;;;;;;;;;
2022/08/31 08:22:50;;;;;;;12.27;3.85;;;20.80;99.90;;;;;;6333997;22;20411;-89
2022/08/31 08:25:29;;;;;;;13.32;3.83;;;20.60;99.90;;;;;;6307203;22;20014;-91
2022/08/31 08:28:28;;;;;;;12.60;4.13;;;20.80;99.90;;;;;;6306598;22;20010;-90
2022/08/31 08:31:02;;;;;;;10.48;4.30;;;21.40;99.90;;;;;;6307237;22;20440;-92
2022/08/31 08:33:30;;;;;;;11.35;4.28;;;21.00;99.90;;;;;;6332486;22;20135;-90
2022/08/31 08:36:07;;;;;;;13.30;4.38;;;21.00;99.90;;;;;;6304993;22;20009;-88
2022/08/31 08:38:34;;;;;;;13.10;4.40;;;21.60;99.90;;;;;;6332386;22;20022;-88
2022/08/31 08:41:06;;;;;;;12.97;4.37;;;22.20;99.90;;;;;;6305357;22;20106;-88
2022/08/31 08:43:35;;;;;;;8.57;4.07;;;21.40;99.90;;;;;;6305032;22;20506;-90
2022/08/31 08:46:03;;;;;;;12.13;4.03;;;21.30;99.90;;;;;;6305619;22;20056;-88
2022/08/31 08:48:36;;;;;;;13.30;3.80;;;21.40;99.90;;;;;;6333134;22;19995;-88
2022/08/31 08:51:11;;;;;;;7.25;3.78;;;21.60;99.90;;;;;;6304889;22;20073;-87
2022/08/31 08:53:40;;;;;;;12.85;4.43;;;21.90;99.90;;;;;;6333619;22;20006;-89
2022/08/31 08:56:22;;;;;;;;;;;;;;;;;;;;;
2022/08/31 08:58:48;;;;;;;13.45;3.80;;;22.40;99.90;;;;;;6331531;22;20102;-89
2022/08/31 09:01:29;;;;;;;12.25;4.30;;;22.60;99.90;;;;;;6333220;22;20466;-89
2022/08/31 09:04:07;;;;;;;13.80;3.92;;;23.60;99.90;;;;;;6305098;22;20089;-89
2022/08/31 09:07:10;;;;;;;9.82;4.20;;;22.90;99.90;;;;;;6304892;22;20017;-89
2022/08/31 09:10:00;;;;;;;11.82;4.20;;;22.90;99.90;;;;;;6305127;22;20730;-88
2022/08/31 09:12:53;;;;;;;10.05;4.15;;;21.50;99.90;;;;;;6306021;22;20060;-88
2022/08/31 09:15:39;;;;;;;16.08;4.50;;;22.60;99.90;;;;;;6304601;22;20003;-89
2022/08/31 09:18:40;;;;;;;12.38;3.90;;;22.80;99.90;;;;;;6332437;22;19999;-89
2022/08/31 09:21:26;;;;;;;16.33;3.63;;;22.90;99.90;;;;;;6305160;22;20021;-88
2022/08/31 09:24:00;;;;;;;21.85;4.25;;;22.90;99.90;;;;;;6304413;22;20007;-87
2022/08/31 09:26:30;;;;;;;14.63;4.57;;;22.90;99.90;;;;;;6302691;22;20006;-91
2022/08/31 09:29:03;;;;;;;13.40;3.85;;;22.70;99.90;;;;;;6303858;22;20010;-89
2022/08/31 09:31:36;;;;;;;12.40;3.70;;;22.90;99.90;;;;;;6302408;22;20006;-88
2022/08/31 09:34:03;;;;;;;12.50;3.90;;;23.10;99.90;;;;;;6331187;22;20077;-87
2022/08/31 09:36:42;;;;;;;9.25;3.63;;;23.00;99.90;;;;;;6303667;22;20052;-88
2022/08/31 09:39:29;;;;;;;12.50;3.40;;;23.20;99.90;;;;;;6303919;22;20059;-89
2022/08/31 09:42:04;;;;;;;8.60;3.28;;;23.60;99.90;;;;;;6333775;22;20490;-88
2022/08/31 09:44:34;;;;;;;13.23;4.20;;;23.40;99.90;;;;;;6306778;22;20446;-89
2022/08/31 09:47:13;;;;;;;13.00;3.40;;;23.40;99.90;;;;;;6333462;22;20017;-89
2022/08/31 09:49:52;;;;;;;15.95;3.42;;;23.70;99.90;;;;;;6334132;22;19999;-89
2022/08/31 09:55:23;;;;;;;10.98;3.60;;;24.00;99.90;;;;;;6333954;22;20491;-91
2022/08/31 09:57:53;;;;;;;10.05;3.50;;;23.70;99.90;;;;;;6305744;22;20526;-88
2022/08/31 10:00:51;;;;;;;16.08;3.65;;;24.30;99.90;;;;;;6333448;22;20007;-91
2022/08/31 10:06:46;;;;;;;12.05;3.88;;;24.20;99.90;;;;;;6318027;22;20372;-89
2022/08/31 10:09:22;;;;;;;8.32;3.83;;;24.70;99.90;;;;;;6307058;22;20007;-92
2022/08/31 10:11:52;;;;;;;0.00;0.00;;;24.10;99.90;;;;;;6306874;22;20406;-88
2022/08/31 10:14:37;;;;;;;0.00;0.00;;;24.20;99.90;;;;;;6307569;22;20427;-90
2022/08/31 10:17:25;;;;;;;0.00;0.00;;;24.40;99.90;;;;;;6306997;22;20003;-91
2022/08/31 10:21:01;;;;;;;12.82;2.95;;;24.40;99.90;;;;;;6306121;22;20152;-92
2022/08/31 10:24:02;;;;;;;8.73;3.20;;;24.40;99.90;;;;;;6154038;23;20033;-91
2022/08/31 10:26:45;;;;;;;8.15;2.95;;;25.20;99.90;;;;;;6179294;23;20343;-89
2022/08/31 10:29:39;;;;;;;10.88;3.55;;;24.40;99.90;;;;;;6325248;22;20014;-91
2022/08/31 10:32:16;;;;;;;10.65;3.67;;;23.80;99.90;;;;;;6334479;22;20078;-91
2022/08/31 10:35:04;;;;;;;;;;;24.20;99.90;;;;;;6336122;22;19999;-90
2022/08/31 10:38:10;;;;;;;10.25;3.33;;;24.20;99.90;;;;;;6327362;22;19898;-88
2022/08/31 10:40:48;;;;;;;12.68;3.45;;;24.10;99.90;;;;;;6331118;22;20062;-89
2022/08/31 10:43:20;;;;;;;9.00;3.25;;;23.90;99.90;;;;;;6334619;22;20009;-89
2022/08/31 10:46:06;;;;;;;13.52;3.67;;;24.00;99.90;;;;;;6339287;22;20452;-90
2022/08/31 10:48:32;;;;;;;9.93;3.00;;;23.90;99.90;;;;;;6308484;22;20081;-89
2022/08/31 10:51:30;;;;;;;16.00;3.60;;;23.90;99.90;;;;;;6335475;22;20006;-90
2022/08/31 10:54:20;;;;;;;8.85;3.05;;;23.70;99.90;;;;;;6305123;22;19998;-92
2022/08/31 10:56:58;;;;;;;14.10;3.35;;;23.60;99.90;;;;;;6335743;22;20006;-91
2022/08/31 11:00:03;;;;;;;10.57;3.53;;;23.60;99.90;;;;;;6308603;22;20324;-91
2022/08/31 11:02:51;;;;;;;12.68;3.15;;;23.80;99.90;;;;;;6324525;22;20070;-89
2022/08/31 11:05:36;;;;;;;11.15;3.35;;;23.40;99.90;;;;;;6310050;22;20051;-89
2022/08/31 11:08:34;;;;;;;8.70;3.10;;;23.80;99.90;;;;;;6308619;22;20036;-89
2022/08/31 11:11:11;;;;;;;9.45;3.35;;;23.40;99.90;;;;;;6336673;22;20068;-91
2022/08/31 11:14:06;;;;;;;10.90;3.13;;;23.40;99.90;;;;;;6335767;22;19999;-89
2022/08/31 11:20:05;;;;;;;9.82;3.38;;;24.00;99.90;;;;;;6310950;22;20067;-90
2022/08/31 11:22:51;;;;;;;8.57;3.10;;;23.40;99.90;;;;;;6305889;22;20009;-87
2022/08/31 11:25:46;;;;;;;13.50;3.55;;;23.40;99.90;;;;;;6307387;22;20010;-89
2022/08/31 11:28:30;;;;;;;9.27;3.72;;;23.50;99.90;;;;;;6283660;22;20082;-89
2022/08/31 11:31:00;;;;;;;13.30;3.40;;;23.50;99.90;;;;;;6333785;22;20052;-89
2022/08/31 11:33:48;;;;;;;;;;;;;;;;;;;;;
2022/08/31 11:37:13;;;;;;;10.45;3.20;;;24.10;99.90;;;;;;6336934;22;20086;-90
2022/08/31 11:40:12;;;;;;;;;;;;;;;;;;;;;
2022/08/31 11:42:59;;;;;;;16.45;3.75;;;23.60;99.90;;;;;;6335725;22;20077;-91
2022/08/31 11:45:55;;;;;;;8.65;3.00;;;24.00;99.90;;;;;;6309529;22;20013;-90
2022/08/31 11:51:42;;;;;;;10.75;3.55;;;22.40;99.90;;;;;;6211600;23;20467;-92
2022/08/31 11:54:36;;;;;;;;;;;23.50;99.90;;;;;;6295592;22;20670;-90
2022/08/31 12:00:03;;;;;;;17.83;3.70;;;24.20;99.90;;;;;;6337211;22;20014;-90
2022/08/31 12:02:44;;;;;;;;;;;;;;;;;;;;;
2022/08/31 12:05:11;;;;;;;9.50;2.97;;;24.50;99.90;;;;;;6336795;22;20425;-89
2022/08/31 12:07:51;;;;;;;11.15;3.40;;;24.50;99.90;;;;;;6337724;22;19999;-92
2022/08/31 12:10:41;;;;;;;;;;;;;;;;;;;;;
2022/08/31 12:13:43;;;;;;;0.00;0.00;;;24.70;99.90;;;;;;6327063;22;20077;-89
2022/08/31 12:20:23;;;;;;;;;;;;;;;;;;;;;
2022/08/31 12:26:47;;;;;;;9.88;3.10;;;25.10;99.90;;;;;;6218763;23;20015;-89
2022/08/31 12:29:30;;;;;;;15.45;3.55;;;25.30;99.90;;;;;;6206838;23;20091;-91
2022/08/31 12:32:01;;;;;;;12.75;3.40;;;25.20;99.90;;;;;;6207313;23;20014;-90
2022/08/31 12:35:26;;;;;;;;;;;;;;;;;;;;;
2022/08/31 12:41:16;;;;;;;40.22;36.13;;;27.10;99.90;;;;;;6165967;23;20112;-92
2022/08/31 12:44:00;;;;;;;4.25;2.95;;;25.50;99.90;;;;;;6287654;22;20010;-92
2022/08/31 12:47:06;;;;;;;;;;;;;;;;;;;;;
2022/08/31 12:49:51;;;;;;;10.68;3.40;;;27.30;99.90;;;;;;6286253;22;20109;-90
2022/08/31 12:52:35;;;;;;;11.63;3.38;;;26.10;99.90;;;;;;6302629;22;20006;-90
2022/08/31 12:55:22;;;;;;;7.50;3.33;;;25.70;99.90;;;;;;6308238;22;20443;-91
2022/08/31 12:58:55;;;;;;;;;;;;;;;;;;;;;
2022/08/31 13:01:41;;;;;;;6.30;3.35;;;26.10;99.90;;;;;;6195963;22;20099;-90
2022/08/31 13:04:09;;;;;;;6.43;3.15;;;26.60;99.90;;;;;;6332221;22;20081;-90
2022/08/31 13:06:40;;;;;;;7.72;3.20;;;26.20;99.90;;;;;;6330255;22;19998;-91
2022/08/31 13:09:46;;;;;;;;;;;;;;;;;;;;;
2022/08/31 13:12:45;;;;;;;8.85;3.03;;;26.20;99.90;;;;;;6328957;22;20085;-93
2022/08/31 13:15:25;;;;;;;7.80;3.40;;;25.10;99.90;;;;;;6334205;22;20003;-91
2022/08/31 13:17:53;;;;;;;5.40;2.75;;;26.50;99.90;;;;;;6309349;22;20101;-89
2022/08/31 13:20:27;;;;;;;8.30;2.95;;;26.70;99.90;;;;;;6340557;22;20038;-93
2022/08/31 13:23:14;;;;;;;5.60;3.10;;;26.40;99.90;;;;;;6313327;22;20066;-91
2022/08/31 13:25:41;;;;;;;10.82;2.90;;;26.30;99.90;;;;;;6359966;22;20116;-90
2022/08/31 13:28:24;;;;;;;5.80;2.92;;;26.40;99.90;;;;;;6361023;22;19983;-88
2022/08/31 13:31:00;;;;;;;8.65;2.95;;;26.10;99.90;;;;;;6332982;22;20007;-89
2022/08/31 13:33:33;;;;;;;8.60;3.08;;;27.00;99.90;;;;;;6315015;22;20049;-92
2022/08/31 13:36:41;;;;;;;10.13;3.00;;;26.30;99.90;;;;;;6337124;22;19999;-90
2022/08/31 13:39:35;;;;;;;;;;;;;;;;;;;;;
2022/08/31 13:42:23;;;;;;;9.50;3.40;;;26.40;99.90;;;;;;6331835;22;20121;-90
2022/08/31 13:45:25;;;;;;;4.40;2.72;;;26.50;99.90;;;;;;6304500;22;20002;-89
2022/08/31 13:48:15;;;;;;;;;;;;;;;;;;;;;
2022/08/31 13:51:03;;;;;;;;;;;;;;;;;;;;;
2022/08/31 13:53:52;;;;;;;;;;;26.80;99.90;;;;;;6336230;22;20169;-92
2022/08/31 14:02:15;;;;;;;8.02;2.67;;;27.00;99.90;;;;;;6276892;22;20064;-89
2022/08/31 14:04:59;;;;;;;8.43;2.88;;;27.00;99.90;;;;;;6335051;22;20029;-89
2022/08/31 14:07:56;;;;;;;6.50;3.10;;;27.20;99.90;;;;;;6307438;22;20029;-90
2022/08/31 14:10:32;;;;;;;6.97;2.72;;;29.20;99.90;;;;;;6335134;22;20006;-89
2022/08/31 14:13:27;;;;;;;;;;;;;;;;;;;;;
2022/08/31 14:16:00;;;;;;;7.97;3.17;;;28.00;99.90;;;;;;6334458;22;20082;-90
2022/08/31 14:18:37;;;;;;;7.10;3.47;;;27.60;99.90;;;;;;6333903;22;20014;-90
2022/08/31 14:21:06;;;;;;;8.83;3.00;;;27.30;99.90;;;;;;6334353;22;20013;-91
2022/08/31 14:23:36;;;;;;;7.75;2.88;;;27.30;99.90;;;;;;6306992;22;19995;-89
2022/08/31 14:26:27;;;;;;;7.93;2.70;;;27.40;99.90;;;;;;6305171;22;20007;-93
2022/08/31 14:29:06;;;;;;;6.78;2.50;;;29.70;99.90;;;;;;6335147;22;20002;-90
2022/08/31 14:31:58;;;;;;;3.58;2.33;;;27.50;99.90;;;;;;6307371;22;20003;-88
2022/08/31 14:34:56;;;;;;;4.43;2.75;;;27.20;99.90;;;;;;6336654;22;20005;-90
2022/08/31 14:37:37;;;;;;;;;;;;;;;;;;;;;
2022/08/31 14:40:04;;;;;;;4.38;1.80;;;27.80;99.90;;;;;;6336931;22;20403;-91
2022/08/31 14:42:35;;;;;;;5.07;1.70;;;28.00;99.90;;;;;;6308838;22;20009;-90
2022/08/31 14:45:17;;;;;;;9.20;2.50;;;27.60;99.90;;;;;;6309445;22;20013;-88
2022/08/31 14:48:07;;;;;;;3.60;1.92;;;27.60;99.90;;;;;;6309257;22;20079;-92
2022/08/31 14:50:45;;;;;;;1.95;1.75;;;27.50;99.90;;;;;;6308776;22;19999;-91
2022/08/31 14:53:11;;;;;;;3.83;1.92;;;28.00;99.90;;;;;;6336772;22;20003;-90
2022/08/31 14:55:40;;;;;;;3.53;1.95;;;27.90;99.90;;;;;;6336501;22;20428;-91
2022/08/31 14:58:22;;;;;;;5.60;1.80;;;27.50;99.90;;;;;;6309385;22;19999;-90
2022/08/31 15:00:48;;;;;;;4.13;2.20;;;27.50;99.90;;;;;;6310138;22;20072;-94
2022/08/31 15:03:15;;;;;;;3.78;2.03;;;27.60;99.90;;;;;;6336456;22;20864;-91
2022/08/31 15:05:41;;;;;;;7.28;2.15;;;27.70;99.90;;;;;;6308224;22;20057;-88
2022/08/31 15:08:08;;;;;;;2.15;1.83;;;27.80;99.90;;;;;;6308727;22;20010;-88
2022/08/31 15:10:34;;;;;;;4.80;1.90;;;27.90;99.90;;;;;;6336743;22;20002;-91
2022/08/31 15:13:04;;;;;;;4.25;2.17;;;28.20;99.90;;;;;;6336816;22;20093;-90
2022/08/31 15:15:40;;;;;;;5.00;2.28;;;27.70;99.90;;;;;;6336509;22;19998;-91